sensor_id;sensor_type;location;lat;lon;timestamp;pressure;altitude;pressure_sealevel;temperature;humidity
49342;BME280;35210;41.606;-87.602;2023-12-20T00:00:16;100345.91;;;1.56;63.13
49342;BME280;35210;41.606;-87.602;2023-12-20T00:02:44;100351.47;;;1.44;63.75
49342;BME280;35210;41.606;-87.602;2023-12-20T00:05:13;100354.19;;;1.39;64.25
49342;BME280;35210;41.606;-87.602;2023-12-20T00:07:41;100357.81;;;1.32;64.73
49342;BME280;35210;41.606;-87.602;2023-12-20T00:10:09;100340.50;;;1.31;64.55
49342;BME280;35210;41.606;-87.602;2023-12-20T00:12:39;100337.88;;;1.33;64.95
49342;BME280;35210;41.606;-87.602;2023-12-20T00:15:09;100337.88;;;1.33;65.09
49342;BME280;35210;41.606;-87.602;2023-12-20T00:17:37;100337.88;;;1.33;65.27
49342;BME280;35210;41.606;-87.602;2023-12-20T00:20:06;100345.84;;;1.25;64.84
49342;BME280;35210;41.606;-87.602;2023-12-20T00:22:34;100348.41;;;1.26;65.28
49342;BME280;35210;41.606;-87.602;2023-12-20T00:25:03;100344.03;;;1.28;65.43
49342;BME280;35210;41.606;-87.602;2023-12-20T00:27:31;100353.25;;;1.42;64.82
49342;BME280;35210;41.606;-87.602;2023-12-20T00:29:59;100375.88;;;1.38;64.45
49342;BME280;35210;41.606;-87.602;2023-12-20T00:32:29;100349.91;;;1.37;64.63
49342;BME280;35210;41.606;-87.602;2023-12-20T00:34:57;100345.41;;;1.43;64.51
49342;BME280;35210;41.606;-87.602;2023-12-20T00:37:25;100347.25;;;1.38;65.15
49342;BME280;35210;41.606;-87.602;2023-12-20T00:39:52;100350.09;;;1.29;65.05
49342;BME280;35210;41.606;-87.602;2023-12-20T00:42:20;100344.53;;;1.43;64.97
49342;BME280;35210;41.606;-87.602;2023-12-20T00:44:48;100342.75;;;1.45;64.24
49342;BME280;35210;41.606;-87.602;2023-12-20T00:47:16;100343.69;;;1.42;64.22
49342;BME280;35210;41.606;-87.602;2023-12-20T00:49:46;100348.88;;;1.44;64.04
49342;BME280;35210;41.606;-87.602;2023-12-20T00:52:14;100352.25;;;1.47;63.43
49342;BME280;35210;41.606;-87.602;2023-12-20T00:54:43;100352.50;;;1.37;63.55
49342;BME280;35210;41.606;-87.602;2023-12-20T00:57:11;100351.53;;;1.41;63.14
49342;BME280;35210;41.606;-87.602;2023-12-20T00:59:39;100366.38;;;1.37;62.52
49342;BME280;35210;41.606;-87.602;2023-12-20T01:02:07;100357.56;;;1.43;62.64
49342;BME280;35210;41.606;-87.602;2023-12-20T01:04:36;100367.31;;;1.35;62.67
49342;BME280;35210;41.606;-87.602;2023-12-20T01:07:06;100357.69;;;1.38;62.63
49342;BME280;35210;41.606;-87.602;2023-12-20T01:09:34;100355.25;;;1.30;62.88
49342;BME280;35210;41.606;-87.602;2023-12-20T01:12:02;100360.16;;;1.43;62.40
49342;BME280;35210;41.606;-87.602;2023-12-20T01:14:30;100361.97;;;1.39;63.13
49342;BME280;35210;41.606;-87.602;2023-12-20T01:16:58;100358.69;;;1.33;63.08
49342;BME280;35210;41.606;-87.602;2023-12-20T01:19:26;100366.34;;;1.39;62.59
49342;BME280;35210;41.606;-87.602;2023-12-20T01:21:55;100359.16;;;1.48;62.77
49342;BME280;35210;41.606;-87.602;2023-12-20T01:24:25;100369.16;;;1.29;62.94
49342;BME280;35210;41.606;-87.602;2023-12-20T01:26:53;100359.97;;;1.49;62.65
49342;BME280;35210;41.606;-87.602;2023-12-20T01:29:21;100366.03;;;1.49;62.86
49342;BME280;35210;41.606;-87.602;2023-12-20T01:31:49;100363.59;;;1.45;62.36
49342;BME280;35210;41.606;-87.602;2023-12-20T01:34:17;100369.50;;;1.50;62.69
49342;BME280;35210;41.606;-87.602;2023-12-20T01:36:45;100362.47;;;1.53;62.24
49342;BME280;35210;41.606;-87.602;2023-12-20T01:39:13;100372.03;;;1.53;61.88
49342;BME280;35210;41.606;-87.602;2023-12-20T01:41:43;100373.81;;;1.51;61.72
49342;BME280;35210;41.606;-87.602;2023-12-20T01:44:11;100376.38;;;1.52;61.92
49342;BME280;35210;41.606;-87.602;2023-12-20T01:46:39;100375.94;;;1.37;61.73
49342;BME280;35210;41.606;-87.602;2023-12-20T01:49:08;100377.06;;;1.59;61.69
49342;BME280;35210;41.606;-87.602;2023-12-20T01:51:36;100386.13;;;1.46;61.82
49342;BME280;35210;41.606;-87.602;2023-12-20T01:54:05;100380.91;;;1.46;62.24
49342;BME280;35210;41.606;-87.602;2023-12-20T01:56:33;100392.06;;;1.49;62.57
49342;BME280;35210;41.606;-87.602;2023-12-20T01:59:03;100384.44;;;1.43;62.01
49342;BME280;35210;41.606;-87.602;2023-12-20T02:01:32;100382.50;;;1.50;62.11
49342;BME280;35210;41.606;-87.602;2023-12-20T02:04:00;100371.88;;;1.59;61.85
49342;BME280;35210;41.606;-87.602;2023-12-20T02:06:30;100379.91;;;1.50;61.62
49342;BME280;35210;41.606;-87.602;2023-12-20T02:08:58;100379.00;;;1.51;61.94
49342;BME280;35210;41.606;-87.602;2023-12-20T02:11:27;100377.16;;;1.56;62.40
49342;BME280;35210;41.606;-87.602;2023-12-20T02:13:56;100370.06;;;1.61;61.83
49342;BME280;35210;41.606;-87.602;2023-12-20T02:16:25;100370.84;;;1.64;62.11
49342;BME280;35210;41.606;-87.602;2023-12-20T02:18:53;100373.41;;;1.66;61.53
49342;BME280;35210;41.606;-87.602;2023-12-20T02:21:32;100372.81;;;1.56;61.42
49342;BME280;35210;41.606;-87.602;2023-12-20T02:24:01;100363.50;;;1.48;62.20
49342;BME280;35210;41.606;-87.602;2023-12-20T02:26:29;100360.84;;;1.49;62.27
49342;BME280;35210;41.606;-87.602;2023-12-20T02:28:57;100365.91;;;1.54;61.87
49342;BME280;35210;41.606;-87.602;2023-12-20T02:31:26;100353.69;;;1.57;62.45
49342;BME280;35210;41.606;-87.602;2023-12-20T02:33:54;100357.34;;;1.50;62.30
49342;BME280;35210;41.606;-87.602;2023-12-20T02:36:22;100360.09;;;1.46;61.94
49342;BME280;35210;41.606;-87.602;2023-12-20T02:38:51;100373.56;;;1.60;61.93
49342;BME280;35210;41.606;-87.602;2023-12-20T02:41:20;100371.09;;;1.55;62.22
49342;BME280;35210;41.606;-87.602;2023-12-20T02:43:48;100364.25;;;1.51;62.51
49342;BME280;35210;41.606;-87.602;2023-12-20T02:46:17;100363.31;;;1.54;61.69
49342;BME280;35210;41.606;-87.602;2023-12-20T02:48:46;100374.06;;;1.42;62.28
49342;BME280;35210;41.606;-87.602;2023-12-20T02:51:14;100371.34;;;1.46;61.89
49342;BME280;35210;41.606;-87.602;2023-12-20T02:53:42;100366.25;;;1.42;61.80
49342;BME280;35210;41.606;-87.602;2023-12-20T02:56:12;100366.88;;;1.50;61.79
49342;BME280;35210;41.606;-87.602;2023-12-20T02:58:40;100359.16;;;1.48;62.00
49342;BME280;35210;41.606;-87.602;2023-12-20T03:01:08;100357.38;;;1.49;61.47
49342;BME280;35210;41.606;-87.602;2023-12-20T03:03:36;100355.44;;;1.57;61.21
49342;BME280;35210;41.606;-87.602;2023-12-20T03:06:04;100353.72;;;1.56;61.77
49342;BME280;35210;41.606;-87.602;2023-12-20T03:08:32;100356.63;;;1.45;60.92
49342;BME280;35210;41.606;-87.602;2023-12-20T03:11:00;100360.97;;;1.45;61.26
49342;BME280;35210;41.606;-87.602;2023-12-20T03:13:30;100352.78;;;1.58;61.48
49342;BME280;35210;41.606;-87.602;2023-12-20T03:15:58;100353.84;;;1.51;60.69
49342;BME280;35210;41.606;-87.602;2023-12-20T03:18:26;100354.63;;;1.55;60.97
49342;BME280;35210;41.606;-87.602;2023-12-20T03:20:54;100351.91;;;1.59;60.30
49342;BME280;35210;41.606;-87.602;2023-12-20T03:23:22;100356.22;;;1.60;60.25
49342;BME280;35210;41.606;-87.602;2023-12-20T03:25:50;100373.50;;;1.63;60.03
49342;BME280;35210;41.606;-87.602;2023-12-20T03:28:19;100368.28;;;1.63;60.38
49342;BME280;35210;41.606;-87.602;2023-12-20T03:30:49;100372.56;;;1.65;60.18
49342;BME280;35210;41.606;-87.602;2023-12-20T03:33:17;100374.50;;;1.57;59.31
49342;BME280;35210;41.606;-87.602;2023-12-20T03:35:45;100377.63;;;1.72;59.04
49342;BME280;35210;41.606;-87.602;2023-12-20T03:38:14;100374.13;;;1.73;59.55
49342;BME280;35210;41.606;-87.602;2023-12-20T03:40:43;100378.31;;;1.78;59.11
49342;BME280;35210;41.606;-87.602;2023-12-20T03:43:11;100376.84;;;1.68;58.70
49342;BME280;35210;41.606;-87.602;2023-12-20T03:45:39;100375.06;;;1.70;59.17
49342;BME280;35210;41.606;-87.602;2023-12-20T03:48:08;100387.91;;;1.76;59.08
49342;BME280;35210;41.606;-87.602;2023-12-20T03:50:36;100386.22;;;1.75;58.60
49342;BME280;35210;41.606;-87.602;2023-12-20T03:53:04;100389.44;;;1.85;59.13
49342;BME280;35210;41.606;-87.602;2023-12-20T03:55:32;100396.34;;;1.86;58.82
49342;BME280;35210;41.606;-87.602;2023-12-20T03:58:00;100397.50;;;1.74;59.00
49342;BME280;35210;41.606;-87.602;2023-12-20T04:00:28;100401.16;;;1.67;59.44
49342;BME280;35210;41.606;-87.602;2023-12-20T04:02:56;100384.50;;;1.74;58.93
49342;BME280;35210;41.606;-87.602;2023-12-20T04:05:26;100389.91;;;1.67;59.64
49342;BME280;35210;41.606;-87.602;2023-12-20T04:07:54;100383.69;;;1.72;59.68
49342;BME280;35210;41.606;-87.602;2023-12-20T04:10:22;100385.38;;;1.73;59.23
49342;BME280;35210;41.606;-87.602;2023-12-20T04:12:50;100375.63;;;1.81;59.20
49342;BME280;35210;41.606;-87.602;2023-12-20T04:15:17;100393.28;;;1.70;59.22
49342;BME280;35210;41.606;-87.602;2023-12-20T04:17:45;100377.66;;;1.70;59.44
49342;BME280;35210;41.606;-87.602;2023-12-20T04:20:13;100387.13;;;1.73;60.03
49342;BME280;35210;41.606;-87.602;2023-12-20T04:22:43;100383.84;;;1.66;60.02
49342;BME280;35210;41.606;-87.602;2023-12-20T04:25:12;100386.38;;;1.69;60.08
49342;BME280;35210;41.606;-87.602;2023-12-20T04:27:40;100401.31;;;1.61;60.04
49342;BME280;35210;41.606;-87.602;2023-12-20T04:30:09;100396.03;;;1.64;60.63
49342;BME280;35210;41.606;-87.602;2023-12-20T04:32:37;100385.38;;;1.73;60.28
49342;BME280;35210;41.606;-87.602;2023-12-20T04:35:05;100384.56;;;1.71;60.09
49342;BME280;35210;41.606;-87.602;2023-12-20T04:37:34;100392.47;;;1.68;60.48
49342;BME280;35210;41.606;-87.602;2023-12-20T04:40:05;100389.03;;;1.66;60.20
49342;BME280;35210;41.606;-87.602;2023-12-20T04:42:34;100394.88;;;1.76;60.57
49342;BME280;35210;41.606;-87.602;2023-12-20T04:45:02;100392.06;;;1.83;60.17
49342;BME280;35210;41.606;-87.602;2023-12-20T04:47:30;100394.75;;;1.80;60.71
49342;BME280;35210;41.606;-87.602;2023-12-20T04:49:58;100391.38;;;1.77;60.88
49342;BME280;35210;41.606;-87.602;2023-12-20T04:52:26;100389.19;;;1.60;61.29
49342;BME280;35210;41.606;-87.602;2023-12-20T04:54:54;100408.97;;;1.67;61.60
49342;BME280;35210;41.606;-87.602;2023-12-20T04:57:24;100397.03;;;1.58;61.04
49342;BME280;35210;41.606;-87.602;2023-12-20T04:59:52;100393.50;;;1.61;61.76
49342;BME280;35210;41.606;-87.602;2023-12-20T05:02:20;100391.75;;;1.61;61.50
49342;BME280;35210;41.606;-87.602;2023-12-20T05:04:48;100397.66;;;1.68;61.52
49342;BME280;35210;41.606;-87.602;2023-12-20T05:07:16;100387.56;;;1.56;61.61
49342;BME280;35210;41.606;-87.602;2023-12-20T05:09:44;100390.81;;;1.64;61.56
49342;BME280;35210;41.606;-87.602;2023-12-20T05:12:12;100390.97;;;1.58;61.85
49342;BME280;35210;41.606;-87.602;2023-12-20T05:14:41;100397.81;;;1.62;62.22
49342;BME280;35210;41.606;-87.602;2023-12-20T05:17:09;100391.56;;;1.69;62.16
49342;BME280;35210;41.606;-87.602;2023-12-20T05:19:37;100391.41;;;1.75;61.20
49342;BME280;35210;41.606;-87.602;2023-12-20T05:22:06;100385.50;;;1.69;61.39
49342;BME280;35210;41.606;-87.602;2023-12-20T05:24:34;100383.59;;;1.75;61.85
49342;BME280;35210;41.606;-87.602;2023-12-20T05:27:03;100388.94;;;1.71;62.06
49342;BME280;35210;41.606;-87.602;2023-12-20T05:29:31;100390.41;;;1.81;61.76
49342;BME280;35210;41.606;-87.602;2023-12-20T05:32:00;100396.47;;;1.81;61.21
49342;BME280;35210;41.606;-87.602;2023-12-20T05:34:29;100388.81;;;1.75;62.17
49342;BME280;35210;41.606;-87.602;2023-12-20T05:36:58;100390.44;;;1.79;61.92
49342;BME280;35210;41.606;-87.602;2023-12-20T05:39:27;100392.00;;;1.86;61.78
49342;BME280;35210;41.606;-87.602;2023-12-20T05:41:57;100389.53;;;1.80;61.76
49342;BME280;35210;41.606;-87.602;2023-12-20T05:44:25;100389.44;;;1.85;62.15
49342;BME280;35210;41.606;-87.602;2023-12-20T05:46:52;100395.34;;;1.91;61.55
49342;BME280;35210;41.606;-87.602;2023-12-20T05:49:22;100391.13;;;1.86;61.60
49342;BME280;35210;41.606;-87.602;2023-12-20T05:51:50;100390.16;;;1.90;61.58
49342;BME280;35210;41.606;-87.602;2023-12-20T05:54:18;100388.41;;;1.90;61.29
49342;BME280;35210;41.606;-87.602;2023-12-20T05:56:46;100398.94;;;1.86;61.50
49342;BME280;35210;41.606;-87.602;2023-12-20T05:59:14;100385.94;;;1.86;62.11
49342;BME280;35210;41.606;-87.602;2023-12-20T06:01:42;100384.91;;;1.91;62.34
49342;BME280;35210;41.606;-87.602;2023-12-20T06:04:10;100378.59;;;2.00;62.18
49342;BME280;35210;41.606;-87.602;2023-12-20T06:06:43;100383.03;;;1.96;62.02
49342;BME280;35210;41.606;-87.602;2023-12-20T06:09:11;100381.25;;;1.98;61.47
49342;BME280;35210;41.606;-87.602;2023-12-20T06:11:39;100386.47;;;1.98;61.44
49342;BME280;35210;41.606;-87.602;2023-12-20T06:14:07;100383.59;;;2.08;61.78
49342;BME280;35210;41.606;-87.602;2023-12-20T06:16:35;100389.06;;;1.98;61.77
49342;BME280;35210;41.606;-87.602;2023-12-20T06:19:03;100386.47;;;1.98;61.46
49342;BME280;35210;41.606;-87.602;2023-12-20T06:21:31;100387.41;;;1.96;61.79
49342;BME280;35210;41.606;-87.602;2023-12-20T06:24:01;100386.28;;;2.05;61.30
49342;BME280;35210;41.606;-87.602;2023-12-20T06:26:29;100392.41;;;2.04;61.49
49342;BME280;35210;41.606;-87.602;2023-12-20T06:28:57;100388.09;;;2.03;61.47
49342;BME280;35210;41.606;-87.602;2023-12-20T06:31:25;100393.22;;;2.06;62.15
49342;BME280;35210;41.606;-87.602;2023-12-20T06:33:53;100395.25;;;1.94;61.93
49342;BME280;35210;41.606;-87.602;2023-12-20T06:36:23;100389.97;;;1.97;62.63
49342;BME280;35210;41.606;-87.602;2023-12-20T06:38:51;100389.66;;;2.08;62.32
49342;BME280;35210;41.606;-87.602;2023-12-20T06:41:21;100397.50;;;2.08;62.24
49342;BME280;35210;41.606;-87.602;2023-12-20T06:43:50;100401.22;;;1.98;61.92
49342;BME280;35210;41.606;-87.602;2023-12-20T06:46:19;100399.06;;;2.14;62.37
49342;BME280;35210;41.606;-87.602;2023-12-20T06:48:47;100399.16;;;2.11;61.72
49342;BME280;35210;41.606;-87.602;2023-12-20T06:51:16;100400.78;;;2.15;62.09
49342;BME280;35210;41.606;-87.602;2023-12-20T06:53:45;100401.69;;;2.14;62.63
49342;BME280;35210;41.606;-87.602;2023-12-20T06:56:13;100400.09;;;2.08;62.71
49342;BME280;35210;41.606;-87.602;2023-12-20T06:58:44;100385.56;;;2.00;62.22
49342;BME280;35210;41.606;-87.602;2023-12-20T07:01:13;100390.56;;;2.07;62.53
49342;BME280;35210;41.606;-87.602;2023-12-20T07:03:41;100390.28;;;2.18;62.60
49342;BME280;35210;41.606;-87.602;2023-12-20T07:06:09;100393.13;;;2.09;62.77
49342;BME280;35210;41.606;-87.602;2023-12-20T07:08:37;100386.22;;;2.08;62.43
49342;BME280;35210;41.606;-87.602;2023-12-20T07:11:05;100393.13;;;2.09;62.79
49342;BME280;35210;41.606;-87.602;2023-12-20T07:13:33;100399.56;;;1.95;63.13
49342;BME280;35210;41.606;-87.602;2023-12-20T07:16:03;100400.13;;;2.07;62.80
49342;BME280;35210;41.606;-87.602;2023-12-20T07:18:31;100397.38;;;2.13;63.26
49342;BME280;35210;41.606;-87.602;2023-12-20T07:20:59;100386.78;;;2.19;62.69
49342;BME280;35210;41.606;-87.602;2023-12-20T07:23:27;100389.28;;;2.22;63.07
49342;BME280;35210;41.606;-87.602;2023-12-20T07:25:55;100399.03;;;2.15;63.27
49342;BME280;35210;41.606;-87.602;2023-12-20T07:28:23;100401.31;;;2.26;63.07
49342;BME280;35210;41.606;-87.602;2023-12-20T07:30:51;100390.88;;;2.26;62.13
49342;BME280;35210;41.606;-87.602;2023-12-20T07:33:21;100401.31;;;2.26;62.48
49342;BME280;35210;41.606;-87.602;2023-12-20T07:35:49;100402.25;;;2.23;63.06
49342;BME280;35210;41.606;-87.602;2023-12-20T07:38:17;100416.69;;;2.35;62.49
49342;BME280;35210;41.606;-87.602;2023-12-20T07:40:45;100407.03;;;2.39;62.78
49342;BME280;35210;41.606;-87.602;2023-12-20T07:43:13;100401.66;;;2.45;62.41
49342;BME280;35210;41.606;-87.602;2023-12-20T07:45:42;100408.53;;;2.47;62.64
49342;BME280;35210;41.606;-87.602;2023-12-20T07:48:09;100407.59;;;2.50;61.76
49342;BME280;35210;41.606;-87.602;2023-12-20T07:50:39;100404.06;;;2.52;62.20
49342;BME280;35210;41.606;-87.602;2023-12-20T07:53:08;100411.78;;;2.55;61.93
49342;BME280;35210;41.606;-87.602;2023-12-20T07:55:36;100415.28;;;2.54;61.70
49342;BME280;35210;41.606;-87.602;2023-12-20T07:58:04;100418.31;;;2.39;61.69
49342;BME280;35210;41.606;-87.602;2023-12-20T08:00:32;100427.56;;;2.51;62.38
49342;BME280;35210;41.606;-87.602;2023-12-20T08:03:00;100423.88;;;2.58;62.14
49342;BME280;35210;41.606;-87.602;2023-12-20T08:05:29;100427.22;;;2.63;61.17
49342;BME280;35210;41.606;-87.602;2023-12-20T08:07:59;100426.34;;;2.62;61.58
49342;BME280;35210;41.606;-87.602;2023-12-20T08:10:27;100429.84;;;2.61;60.74
49342;BME280;35210;41.606;-87.602;2023-12-20T08:12:56;100435.84;;;2.65;60.85
49342;BME280;35210;41.606;-87.602;2023-12-20T08:15:24;100425.47;;;2.63;61.06
49342;BME280;35210;41.606;-87.602;2023-12-20T08:17:52;100425.59;;;2.59;60.40
49342;BME280;35210;41.606;-87.602;2023-12-20T08:20:20;100434.25;;;2.59;60.85
49342;BME280;35210;41.606;-87.602;2023-12-20T08:22:48;100431.56;;;2.62;61.05
49342;BME280;35210;41.606;-87.602;2023-12-20T08:25:18;100426.34;;;2.62;61.25
49342;BME280;35210;41.606;-87.602;2023-12-20T08:27:46;100426.94;;;2.72;61.20
49342;BME280;35210;41.606;-87.602;2023-12-20T08:30:14;100422.59;;;2.73;60.80
49342;BME280;35210;41.606;-87.602;2023-12-20T08:32:43;100418.31;;;2.70;61.41
49342;BME280;35210;41.606;-87.602;2023-12-20T08:35:11;100429.13;;;2.56;61.26
49342;BME280;35210;41.606;-87.602;2023-12-20T08:37:39;100429.72;;;2.66;61.09
49342;BME280;35210;41.606;-87.602;2023-12-20T08:40:08;100433.81;;;2.75;60.94
49342;BME280;35210;41.606;-87.602;2023-12-20T08:42:37;100438.09;;;2.77;61.07
49342;BME280;35210;41.606;-87.602;2023-12-20T08:45:06;100429.34;;;2.80;60.47
49342;BME280;35210;41.606;-87.602;2023-12-20T08:47:34;100429.16;;;2.86;61.50
49342;BME280;35210;41.606;-87.602;2023-12-20T08:50:03;100440.72;;;2.77;60.97
49342;BME280;35210;41.606;-87.602;2023-12-20T08:52:31;100436.94;;;2.87;60.54
49342;BME280;35210;41.606;-87.602;2023-12-20T08:54:59;100431.97;;;2.78;60.92
49342;BME280;35210;41.606;-87.602;2023-12-20T08:57:27;100419.97;;;2.73;61.20
49342;BME280;35210;41.606;-87.602;2023-12-20T08:59:57;100420.19;;;2.65;61.46
49342;BME280;35210;41.606;-87.602;2023-12-20T09:02:25;100416.50;;;2.72;61.29
49342;BME280;35210;41.606;-87.602;2023-12-20T09:04:53;100421.84;;;2.68;61.62
49342;BME280;35210;41.606;-87.602;2023-12-20T09:07:22;100415.91;;;2.62;61.54
49342;BME280;35210;41.606;-87.602;2023-12-20T09:09:50;100418.63;;;2.59;61.93
49342;BME280;35210;41.606;-87.602;2023-12-20T09:12:19;100409.72;;;2.67;61.38
49342;BME280;35210;41.606;-87.602;2023-12-20T09:14:47;100410.84;;;2.58;62.51
49342;BME280;35210;41.606;-87.602;2023-12-20T09:17:17;100409.16;;;2.55;61.75
49342;BME280;35210;41.606;-87.602;2023-12-20T09:19:46;100405.59;;;2.59;62.48
49342;BME280;35210;41.606;-87.602;2023-12-20T09:22:14;100410.78;;;2.59;62.12
49342;BME280;35210;41.606;-87.602;2023-12-20T09:24:43;100411.91;;;2.51;62.54
49342;BME280;35210;41.606;-87.602;2023-12-20T09:27:11;100405.00;;;2.50;62.75
49342;BME280;35210;41.606;-87.602;2023-12-20T09:29:39;100408.38;;;2.53;62.53
49342;BME280;35210;41.606;-87.602;2023-12-20T09:32:07;100414.59;;;2.48;62.52
49342;BME280;35210;41.606;-87.602;2023-12-20T09:34:37;100420.41;;;2.57;62.65
49342;BME280;35210;41.606;-87.602;2023-12-20T09:37:05;100423.03;;;2.57;62.69
49342;BME280;35210;41.606;-87.602;2023-12-20T09:39:34;100429.91;;;2.60;62.35
49342;BME280;35210;41.606;-87.602;2023-12-20T09:42:03;100426.56;;;2.55;62.55
49342;BME280;35210;41.606;-87.602;2023-12-20T09:44:33;100430.97;;;2.53;62.54
49342;BME280;35210;41.606;-87.602;2023-12-20T09:47:02;100428.25;;;2.57;63.14
49342;BME280;35210;41.606;-87.602;2023-12-20T09:49:31;100427.63;;;2.48;62.82
49342;BME280;35210;41.606;-87.602;2023-12-20T09:52:02;100417.97;;;2.51;62.94
49342;BME280;35210;41.606;-87.602;2023-12-20T09:54:32;100414.66;;;2.46;63.13
49342;BME280;35210;41.606;-87.602;2023-12-20T09:57:00;100422.50;;;2.45;63.35
49342;BME280;35210;41.606;-87.602;2023-12-20T09:59:28;100417.25;;;2.46;62.96
49342;BME280;35210;41.606;-87.602;2023-12-20T10:01:56;100431.06;;;2.50;63.13
49342;BME280;35210;41.606;-87.602;2023-12-20T10:04:24;100430.22;;;2.49;62.98
49342;BME280;35210;41.606;-87.602;2023-12-20T10:06:52;100421.66;;;2.44;63.42
49342;BME280;35210;41.606;-87.602;2023-12-20T10:09:24;100426.88;;;2.44;63.56
49342;BME280;35210;41.606;-87.602;2023-12-20T10:11:54;100430.53;;;2.37;64.31
49342;BME280;35210;41.606;-87.602;2023-12-20T10:14:23;100424.44;;;2.38;64.26
49342;BME280;35210;41.606;-87.602;2023-12-20T10:16:51;100433.03;;;2.42;63.52
49342;BME280;35210;41.606;-87.602;2023-12-20T10:19:20;100435.59;;;2.43;63.81
49342;BME280;35210;41.606;-87.602;2023-12-20T10:21:49;100437.22;;;2.47;64.10
49342;BME280;35210;41.606;-87.602;2023-12-20T10:24:18;100431.81;;;2.53;63.80
49342;BME280;35210;41.606;-87.602;2023-12-20T10:26:48;100440.63;;;2.49;62.88
49342;BME280;35210;41.606;-87.602;2023-12-20T10:29:32;100431.66;;;2.59;62.91
49342;BME280;35210;41.606;-87.602;2023-12-20T10:32:22;100440.72;;;2.46;63.90
49342;BME280;35210;41.606;-87.602;2023-12-20T10:34:51;100437.00;;;2.55;63.92
49342;BME280;35210;41.606;-87.602;2023-12-20T10:37:19;100428.25;;;2.57;63.40
49342;BME280;35210;41.606;-87.602;2023-12-20T10:39:50;100436.97;;;2.56;63.42
49342;BME280;35210;41.606;-87.602;2023-12-20T10:42:21;100435.59;;;2.43;63.30
49342;BME280;35210;41.606;-87.602;2023-12-20T10:44:50;100431.91;;;2.50;63.75
49342;BME280;35210;41.606;-87.602;2023-12-20T10:47:20;100438.66;;;2.57;63.17
49342;BME280;35210;41.606;-87.602;2023-12-20T10:49:47;100440.88;;;2.40;63.39
49342;BME280;35210;41.606;-87.602;2023-12-20T10:52:17;100445.00;;;2.49;63.34
49342;BME280;35210;41.606;-87.602;2023-12-20T10:54:45;100450.25;;;2.47;63.09
49342;BME280;35210;41.606;-87.602;2023-12-20T10:57:13;100447.63;;;2.47;63.34
49342;BME280;35210;41.606;-87.602;2023-12-20T10:59:45;100447.72;;;2.44;63.11
49342;BME280;35210;41.606;-87.602;2023-12-20T11:02:13;100448.75;;;2.39;63.51
49342;BME280;35210;41.606;-87.602;2023-12-20T11:05:01;100449.38;;;2.47;63.12
49342;BME280;35210;41.606;-87.602;2023-12-20T11:07:40;100450.97;;;2.52;62.90
49342;BME280;35210;41.606;-87.602;2023-12-20T11:10:19;100456.22;;;2.51;62.96
49342;BME280;35210;41.606;-87.602;2023-12-20T11:12:53;100449.66;;;2.38;62.87
49342;BME280;35210;41.606;-87.602;2023-12-20T11:15:25;100454.47;;;2.51;63.07
49342;BME280;35210;41.606;-87.602;2023-12-20T11:17:57;100463.19;;;2.50;62.77
49342;BME280;35210;41.606;-87.602;2023-12-20T11:20:36;100470.94;;;2.53;62.33
49342;BME280;35210;41.606;-87.602;2023-12-20T11:23:05;100471.28;;;2.41;62.82
49342;BME280;35210;41.606;-87.602;2023-12-20T11:25:46;100473.38;;;2.27;63.41
49342;BME280;35210;41.606;-87.602;2023-12-20T11:28:15;100475.84;;;2.33;63.22
49342;BME280;35210;41.606;-87.602;2023-12-20T11:30:49;100479.97;;;2.40;62.66
49342;BME280;35210;41.606;-87.602;2023-12-20T11:33:21;100488.75;;;2.38;62.34
49342;BME280;35210;41.606;-87.602;2023-12-20T11:35:50;100492.38;;;2.32;63.38
49342;BME280;35210;41.606;-87.602;2023-12-20T11:38:20;100500.38;;;2.24;63.13
49342;BME280;35210;41.606;-87.602;2023-12-20T11:40:49;100495.78;;;2.34;62.59
49342;BME280;35210;41.606;-87.602;2023-12-20T11:43:30;100500.19;;;2.32;63.08
49342;BME280;35210;41.606;-87.602;2023-12-20T11:46:04;100506.22;;;2.34;62.40
49342;BME280;35210;41.606;-87.602;2023-12-20T11:48:34;100506.13;;;2.37;62.46
49342;BME280;35210;41.606;-87.602;2023-12-20T11:51:02;100507.09;;;2.33;62.83
49342;BME280;35210;41.606;-87.602;2023-12-20T11:53:30;100507.97;;;2.34;63.14
49342;BME280;35210;41.606;-87.602;2023-12-20T11:55:59;100508.94;;;2.29;62.70
49342;BME280;35210;41.606;-87.602;2023-12-20T11:58:30;100510.91;;;2.21;62.91
49342;BME280;35210;41.606;-87.602;2023-12-20T12:00:59;100516.78;;;2.28;62.14
49342;BME280;35210;41.606;-87.602;2023-12-20T12:03:30;100517.63;;;2.30;62.38
49342;BME280;35210;41.606;-87.602;2023-12-20T12:05:58;100525.47;;;2.28;62.76
49342;BME280;35210;41.606;-87.602;2023-12-20T12:08:27;100528.31;;;2.21;62.95
49342;BME280;35210;41.606;-87.602;2023-12-20T12:10:55;100527.50;;;2.19;62.92
49342;BME280;35210;41.606;-87.602;2023-12-20T12:13:23;100536.09;;;2.22;63.29
49342;BME280;35210;41.606;-87.602;2023-12-20T12:15:53;100530.72;;;2.27;62.54
49342;BME280;35210;41.606;-87.602;2023-12-20T12:18:21;100534.16;;;2.29;62.46
49342;BME280;35210;41.606;-87.602;2023-12-20T12:21:00;100531.53;;;2.29;63.18
49342;BME280;35210;41.606;-87.602;2023-12-20T12:23:28;100528.19;;;2.24;62.81
49342;BME280;35210;41.606;-87.602;2023-12-20T12:25:56;100531.69;;;2.23;62.43
49342;BME280;35210;41.606;-87.602;2023-12-20T12:28:26;100529.25;;;2.18;62.74
49342;BME280;35210;41.606;-87.602;2023-12-20T12:31:00;100538.88;;;2.15;63.16
49342;BME280;35210;41.606;-87.602;2023-12-20T12:33:28;100541.34;;;2.21;62.96
49342;BME280;35210;41.606;-87.602;2023-12-20T12:35:58;100541.44;;;2.16;62.51
49342;BME280;35210;41.606;-87.602;2023-12-20T12:38:27;100545.97;;;2.10;63.46
49342;BME280;35210;41.606;-87.602;2023-12-20T12:40:55;100550.28;;;2.11;62.75
49342;BME280;35210;41.606;-87.602;2023-12-20T12:43:23;100554.59;;;2.12;63.01
49342;BME280;35210;41.606;-87.602;2023-12-20T12:45:51;100552.88;;;2.11;63.75
49342;BME280;35210;41.606;-87.602;2023-12-20T12:48:21;100558.16;;;2.08;63.58